sensor_id;sensor_type;location;lat;lon;timestamp;P1;durP1;ratioP1;P2;durP2;ratioP2
53879;SDS011;39791;53.184;5.486;2023-12-22T00:00:44;31.65;;;8.52;;
53879;SDS011;39791;53.184;5.486;2023-12-22T00:03:12;29.33;;;8.40;;
53879;SDS011;39791;53.184;5.486;2023-12-22T00:05:39;31.35;;;8.88;;
53879;SDS011;39791;53.184;5.486;2023-12-22T00:08:05;26.88;;;6.47;;
53879;SDS011;39791;53.184;5.486;2023-12-22T00:10:30;25.13;;;7.00;;
53879;SDS011;39791;53.184;5.486;2023-12-22T00:12:56;24.88;;;7.00;;
53879;SDS011;39791;53.184;5.486;2023-12-22T00:15:22;30.10;;;7.05;;
53879;SDS011;39791;53.184;5.486;2023-12-22T00:17:47;36.03;;;8.98;;
53879;SDS011;39791;53.184;5.486;2023-12-22T00:20:13;24.17;;;7.22;;
53879;SDS011;39791;53.184;5.486;2023-12-22T00:22:39;19.55;;;5.90;;
53879;SDS011;39791;53.184;5.486;2023-12-22T00:25:05;16.13;;;5.15;;
53879;SDS011;39791;53.184;5.486;2023-12-22T00:27:32;17.45;;;6.57;;
53879;SDS011;39791;53.184;5.486;2023-12-22T00:29:58;18.65;;;4.25;;
53879;SDS011;39791;53.184;5.486;2023-12-22T00:32:24;24.77;;;6.85;;
53879;SDS011;39791;53.184;5.486;2023-12-22T00:34:50;26.73;;;6.68;;
53879;SDS011;39791;53.184;5.486;2023-12-22T00:37:15;33.20;;;7.43;;
53879;SDS011;39791;53.184;5.486;2023-12-22T00:39:41;25.85;;;6.72;;
53879;SDS011;39791;53.184;5.486;2023-12-22T00:42:06;29.42;;;7.60;;
53879;SDS011;39791;53.184;5.486;2023-12-22T00:44:32;33.60;;;8.25;;
53879;SDS011;39791;53.184;5.486;2023-12-22T00:46:57;30.20;;;8.73;;
53879;SDS011;39791;53.184;5.486;2023-12-22T00:49:23;23.58;;;8.07;;
53879;SDS011;39791;53.184;5.486;2023-12-22T00:51:49;28.35;;;8.35;;
53879;SDS011;39791;53.184;5.486;2023-12-22T00:54:14;30.98;;;7.28;;
53879;SDS011;39791;53.184;5.486;2023-12-22T00:56:40;34.25;;;8.50;;
53879;SDS011;39791;53.184;5.486;2023-12-22T00:59:05;26.60;;;8.70;;
53879;SDS011;39791;53.184;5.486;2023-12-22T01:01:31;20.88;;;5.22;;
53879;SDS011;39791;53.184;5.486;2023-12-22T01:03:56;25.33;;;9.30;;
53879;SDS011;39791;53.184;5.486;2023-12-22T01:06:25;27.20;;;8.70;;
53879;SDS011;39791;53.184;5.486;2023-12-22T01:08:50;25.33;;;7.50;;
53879;SDS011;39791;53.184;5.486;2023-12-22T01:11:16;29.20;;;10.48;;
53879;SDS011;39791;53.184;5.486;2023-12-22T01:13:42;23.33;;;9.00;;
53879;SDS011;39791;53.184;5.486;2023-12-22T01:16:08;28.90;;;12.10;;
53879;SDS011;39791;53.184;5.486;2023-12-22T01:18:34;36.53;;;16.17;;
53879;SDS011;39791;53.184;5.486;2023-12-22T01:20:59;25.08;;;11.55;;
53879;SDS011;39791;53.184;5.486;2023-12-22T01:23:25;33.17;;;13.68;;
53879;SDS011;39791;53.184;5.486;2023-12-22T01:25:50;24.58;;;8.35;;
53879;SDS011;39791;53.184;5.486;2023-12-22T01:28:16;21.75;;;9.85;;
53879;SDS011;39791;53.184;5.486;2023-12-22T01:30:42;23.80;;;9.48;;
53879;SDS011;39791;53.184;5.486;2023-12-22T01:33:08;24.73;;;10.20;;
53879;SDS011;39791;53.184;5.486;2023-12-22T01:35:33;31.67;;;10.95;;
53879;SDS011;39791;53.184;5.486;2023-12-22T01:37:59;31.63;;;19.15;;
53879;SDS011;39791;53.184;5.486;2023-12-22T01:40:24;27.17;;;11.60;;
53879;SDS011;39791;53.184;5.486;2023-12-22T01:42:50;33.60;;;16.75;;
53879;SDS011;39791;53.184;5.486;2023-12-22T01:45:15;48.88;;;33.95;;
53879;SDS011;39791;53.184;5.486;2023-12-22T01:47:41;47.08;;;33.42;;
53879;SDS011;39791;53.184;5.486;2023-12-22T01:50:08;39.60;;;31.63;;
53879;SDS011;39791;53.184;5.486;2023-12-22T01:52:36;35.42;;;29.00;;
53879;SDS011;39791;53.184;5.486;2023-12-22T01:55:04;40.03;;;33.10;;
53879;SDS011;39791;53.184;5.486;2023-12-22T01:57:30;45.63;;;33.13;;
53879;SDS011;39791;53.184;5.486;2023-12-22T01:59:56;43.03;;;30.92;;
53879;SDS011;39791;53.184;5.486;2023-12-22T02:02:22;63.17;;;31.85;;
53879;SDS011;39791;53.184;5.486;2023-12-22T02:04:48;32.83;;;25.75;;
53879;SDS011;39791;53.184;5.486;2023-12-22T02:07:14;37.08;;;25.10;;
53879;SDS011;39791;53.184;5.486;2023-12-22T02:09:40;34.58;;;24.52;;
53879;SDS011;39791;53.184;5.486;2023-12-22T02:12:05;40.28;;;32.80;;
53879;SDS011;39791;53.184;5.486;2023-12-22T02:14:31;50.80;;;32.13;;
53879;SDS011;39791;53.184;5.486;2023-12-22T02:19:48;32.25;;;24.67;;
53879;SDS011;39791;53.184;5.486;2023-12-22T02:22:14;38.13;;;28.90;;
53879;SDS011;39791;53.184;5.486;2023-12-22T02:24:40;39.53;;;30.10;;
53879;SDS011;39791;53.184;5.486;2023-12-22T02:27:14;29.25;;;25.02;;
53879;SDS011;39791;53.184;5.486;2023-12-22T02:30:09;50.13;;;31.90;;
53879;SDS011;39791;53.184;5.486;2023-12-22T02:32:40;38.55;;;24.15;;
53879;SDS011;39791;53.184;5.486;2023-12-22T02:35:13;38.60;;;27.67;;
53879;SDS011;39791;53.184;5.486;2023-12-22T02:37:41;27.25;;;22.30;;
53879;SDS011;39791;53.184;5.486;2023-12-22T02:40:08;27.70;;;23.20;;
53879;SDS011;39791;53.184;5.486;2023-12-22T02:42:34;47.17;;;28.65;;
53879;SDS011;39791;53.184;5.486;2023-12-22T02:45:02;27.92;;;22.90;;
53879;SDS011;39791;53.184;5.486;2023-12-22T02:47:29;36.55;;;27.83;;
53879;SDS011;39791;53.184;5.486;2023-12-22T02:49:54;26.80;;;23.88;;
53879;SDS011;39791;53.184;5.486;2023-12-22T02:52:20;45.17;;;27.90;;
53879;SDS011;39791;53.184;5.486;2023-12-22T02:54:45;46.67;;;28.48;;
53879;SDS011;39791;53.184;5.486;2023-12-22T02:57:12;38.40;;;25.30;;
53879;SDS011;39791;53.184;5.486;2023-12-22T02:59:38;35.65;;;25.17;;
53879;SDS011;39791;53.184;5.486;2023-12-22T03:02:03;25.02;;;19.02;;
53879;SDS011;39791;53.184;5.486;2023-12-22T03:04:29;40.13;;;22.20;;
53879;SDS011;39791;53.184;5.486;2023-12-22T03:06:54;33.20;;;20.38;;
53879;SDS011;39791;53.184;5.486;2023-12-22T03:09:20;20.55;;;14.15;;
53879;SDS011;39791;53.184;5.486;2023-12-22T03:11:46;15.93;;;11.88;;
53879;SDS011;39791;53.184;5.486;2023-12-22T03:14:12;28.15;;;13.98;;
53879;SDS011;39791;53.184;5.486;2023-12-22T03:16:38;26.30;;;13.68;;
53879;SDS011;39791;53.184;5.486;2023-12-22T03:19:05;24.30;;;10.80;;
53879;SDS011;39791;53.184;5.486;2023-12-22T03:21:31;26.65;;;11.93;;
53879;SDS011;39791;53.184;5.486;2023-12-22T03:23:57;24.48;;;11.30;;
53879;SDS011;39791;53.184;5.486;2023-12-22T03:26:22;19.20;;;7.40;;
53879;SDS011;39791;53.184;5.486;2023-12-22T03:28:48;32.50;;;9.52;;
53879;SDS011;39791;53.184;5.486;2023-12-22T03:31:13;23.42;;;9.50;;
53879;SDS011;39791;53.184;5.486;2023-12-22T03:33:39;18.88;;;7.55;;
53879;SDS011;39791;53.184;5.486;2023-12-22T03:36:05;21.15;;;7.32;;
53879;SDS011;39791;53.184;5.486;2023-12-22T03:38:31;23.83;;;7.80;;
53879;SDS011;39791;53.184;5.486;2023-12-22T03:40:56;21.20;;;7.63;;
53879;SDS011;39791;53.184;5.486;2023-12-22T03:43:22;24.23;;;7.60;;
53879;SDS011;39791;53.184;5.486;2023-12-22T03:45:47;16.90;;;4.85;;
53879;SDS011;39791;53.184;5.486;2023-12-22T03:48:13;27.90;;;7.72;;
53879;SDS011;39791;53.184;5.486;2023-12-22T03:50:38;27.13;;;8.18;;
53879;SDS011;39791;53.184;5.486;2023-12-22T03:53:04;17.73;;;4.38;;
53879;SDS011;39791;53.184;5.486;2023-12-22T03:55:29;29.15;;;8.77;;
53879;SDS011;39791;53.184;5.486;2023-12-22T03:57:55;16.40;;;4.97;;
53879;SDS011;39791;53.184;5.486;2023-12-22T04:00:20;10.35;;;3.85;;
53879;SDS011;39791;53.184;5.486;2023-12-22T04:02:46;20.48;;;7.72;;
53879;SDS011;39791;53.184;5.486;2023-12-22T04:05:11;22.13;;;7.65;;
53879;SDS011;39791;53.184;5.486;2023-12-22T04:07:37;21.95;;;6.82;;
53879;SDS011;39791;53.184;5.486;2023-12-22T04:10:03;25.23;;;7.45;;
53879;SDS011;39791;53.184;5.486;2023-12-22T04:12:28;19.30;;;5.63;;
53879;SDS011;39791;53.184;5.486;2023-12-22T04:14:54;22.45;;;8.43;;
53879;SDS011;39791;53.184;5.486;2023-12-22T04:17:19;25.05;;;8.65;;
53879;SDS011;39791;53.184;5.486;2023-12-22T04:19:45;20.17;;;7.43;;
53879;SDS011;39791;53.184;5.486;2023-12-22T04:22:11;24.00;;;9.60;;
53879;SDS011;39791;53.184;5.486;2023-12-22T04:24:36;26.88;;;10.80;;
53879;SDS011;39791;53.184;5.486;2023-12-22T04:27:02;26.63;;;12.85;;
53879;SDS011;39791;53.184;5.486;2023-12-22T04:29:27;15.82;;;8.20;;
53879;SDS011;39791;53.184;5.486;2023-12-22T04:31:53;24.27;;;8.77;;
53879;SDS011;39791;53.184;5.486;2023-12-22T04:34:18;29.27;;;11.38;;
53879;SDS011;39791;53.184;5.486;2023-12-22T04:36:44;30.02;;;12.50;;
53879;SDS011;39791;53.184;5.486;2023-12-22T04:39:10;30.25;;;10.98;;
53879;SDS011;39791;53.184;5.486;2023-12-22T04:41:35;11.52;;;5.20;;
53879;SDS011;39791;53.184;5.486;2023-12-22T04:44:01;26.67;;;8.95;;
53879;SDS011;39791;53.184;5.486;2023-12-22T04:46:28;23.35;;;8.00;;
53879;SDS011;39791;53.184;5.486;2023-12-22T04:48:54;24.38;;;8.30;;
53879;SDS011;39791;53.184;5.486;2023-12-22T04:51:20;27.52;;;10.27;;
53879;SDS011;39791;53.184;5.486;2023-12-22T04:53:46;31.55;;;11.77;;
53879;SDS011;39791;53.184;5.486;2023-12-22T04:56:11;26.55;;;11.45;;
53879;SDS011;39791;53.184;5.486;2023-12-22T04:58:37;24.08;;;11.15;;
53879;SDS011;39791;53.184;5.486;2023-12-22T05:01:03;23.65;;;8.52;;
53879;SDS011;39791;53.184;5.486;2023-12-22T05:03:28;15.35;;;6.50;;
53879;SDS011;39791;53.184;5.486;2023-12-22T05:05:54;29.52;;;9.50;;
53879;SDS011;39791;53.184;5.486;2023-12-22T05:08:19;35.63;;;12.15;;
53879;SDS011;39791;53.184;5.486;2023-12-22T05:10:45;37.25;;;13.05;;
53879;SDS011;39791;53.184;5.486;2023-12-22T05:13:10;29.48;;;11.55;;
53879;SDS011;39791;53.184;5.486;2023-12-22T05:15:36;33.70;;;12.13;;
53879;SDS011;39791;53.184;5.486;2023-12-22T05:18:01;28.33;;;11.90;;
53879;SDS011;39791;53.184;5.486;2023-12-22T05:20:27;19.45;;;8.10;;
53879;SDS011;39791;53.184;5.486;2023-12-22T05:22:53;41.92;;;13.00;;
53879;SDS011;39791;53.184;5.486;2023-12-22T05:25:19;25.38;;;10.02;;
53879;SDS011;39791;53.184;5.486;2023-12-22T05:27:44;26.20;;;10.40;;
53879;SDS011;39791;53.184;5.486;2023-12-22T05:30:10;24.05;;;9.35;;
53879;SDS011;39791;53.184;5.486;2023-12-22T05:32:36;33.95;;;10.77;;
53879;SDS011;39791;53.184;5.486;2023-12-22T05:35:02;23.35;;;8.85;;
53879;SDS011;39791;53.184;5.486;2023-12-22T05:37:27;13.30;;;6.60;;
53879;SDS011;39791;53.184;5.486;2023-12-22T05:39:53;26.77;;;10.70;;
53879;SDS011;39791;53.184;5.486;2023-12-22T05:42:19;28.33;;;10.77;;
53879;SDS011;39791;53.184;5.486;2023-12-22T05:44:44;25.73;;;9.73;;
53879;SDS011;39791;53.184;5.486;2023-12-22T05:47:14;18.27;;;7.95;;
53879;SDS011;39791;53.184;5.486;2023-12-22T05:49:41;28.02;;;9.70;;
53879;SDS011;39791;53.184;5.486;2023-12-22T05:52:06;26.33;;;10.52;;
53879;SDS011;39791;53.184;5.486;2023-12-22T05:54:34;24.27;;;8.80;;
53879;SDS011;39791;53.184;5.486;2023-12-22T05:56:59;28.88;;;9.23;;
53879;SDS011;39791;53.184;5.486;2023-12-22T05:59:25;22.55;;;11.05;;
53879;SDS011;39791;53.184;5.486;2023-12-22T06:01:53;26.27;;;9.65;;
53879;SDS011;39791;53.184;5.486;2023-12-22T06:04:19;28.10;;;10.02;;
53879;SDS011;39791;53.184;5.486;2023-12-22T06:06:44;24.65;;;9.55;;
53879;SDS011;39791;53.184;5.486;2023-12-22T06:09:10;24.40;;;9.40;;
53879;SDS011;39791;53.184;5.486;2023-12-22T06:11:38;23.55;;;9.60;;
53879;SDS011;39791;53.184;5.486;2023-12-22T06:14:04;32.35;;;12.50;;
53879;SDS011;39791;53.184;5.486;2023-12-22T06:16:30;35.35;;;11.85;;
53879;SDS011;39791;53.184;5.486;2023-12-22T06:18:56;24.95;;;10.38;;
53879;SDS011;39791;53.184;5.486;2023-12-22T06:21:22;28.45;;;10.93;;
53879;SDS011;39791;53.184;5.486;2023-12-22T06:23:47;27.10;;;10.02;;
53879;SDS011;39791;53.184;5.486;2023-12-22T06:26:13;28.48;;;10.55;;
53879;SDS011;39791;53.184;5.486;2023-12-22T06:28:39;31.02;;;14.10;;
53879;SDS011;39791;53.184;5.486;2023-12-22T06:31:05;31.52;;;15.77;;
53879;SDS011;39791;53.184;5.486;2023-12-22T06:33:31;34.25;;;18.08;;
53879;SDS011;39791;53.184;5.486;2023-12-22T06:35:57;34.28;;;17.92;;
53879;SDS011;39791;53.184;5.486;2023-12-22T06:38:23;17.80;;;13.18;;
53879;SDS011;39791;53.184;5.486;2023-12-22T06:40:48;49.25;;;26.70;;
53879;SDS011;39791;53.184;5.486;2023-12-22T06:43:15;44.78;;;32.38;;
53879;SDS011;39791;53.184;5.486;2023-12-22T06:45:41;42.60;;;30.67;;
53879;SDS011;39791;53.184;5.486;2023-12-22T06:48:07;64.28;;;35.75;;
53879;SDS011;39791;53.184;5.486;2023-12-22T06:50:34;54.08;;;35.33;;
53879;SDS011;39791;53.184;5.486;2023-12-22T06:53:01;57.50;;;34.30;;
53879;SDS011;39791;53.184;5.486;2023-12-22T06:55:27;44.47;;;30.48;;
53879;SDS011;39791;53.184;5.486;2023-12-22T06:57:54;43.35;;;31.90;;
53879;SDS011;39791;53.184;5.486;2023-12-22T07:00:20;48.33;;;31.73;;
53879;SDS011;39791;53.184;5.486;2023-12-22T07:02:46;39.45;;;29.73;;
53879;SDS011;39791;53.184;5.486;2023-12-22T07:07:46;44.35;;;31.58;;
53879;SDS011;39791;53.184;5.486;2023-12-22T07:10:12;45.88;;;27.05;;
53879;SDS011;39791;53.184;5.486;2023-12-22T07:12:37;35.03;;;25.38;;
53879;SDS011;39791;53.184;5.486;2023-12-22T07:15:04;40.97;;;29.88;;
53879;SDS011;39791;53.184;5.486;2023-12-22T07:17:32;51.63;;;32.90;;
53879;SDS011;39791;53.184;5.486;2023-12-22T07:19:57;45.22;;;31.02;;
53879;SDS011;39791;53.184;5.486;2023-12-22T07:22:23;41.08;;;30.92;;
53879;SDS011;39791;53.184;5.486;2023-12-22T07:24:49;28.85;;;25.20;;
53879;SDS011;39791;53.184;5.486;2023-12-22T07:27:16;38.30;;;31.67;;
53879;SDS011;39791;53.184;5.486;2023-12-22T07:29:42;36.70;;;31.45;;
53879;SDS011;39791;53.184;5.486;2023-12-22T07:32:08;38.47;;;32.30;;
53879;SDS011;39791;53.184;5.486;2023-12-22T07:34:33;42.75;;;31.95;;
53879;SDS011;39791;53.184;5.486;2023-12-22T07:36:59;39.38;;;29.92;;
53879;SDS011;39791;53.184;5.486;2023-12-22T07:39:24;34.00;;;29.00;;
53879;SDS011;39791;53.184;5.486;2023-12-22T07:41:50;35.67;;;28.58;;
53879;SDS011;39791;53.184;5.486;2023-12-22T07:44:15;36.65;;;27.38;;
53879;SDS011;39791;53.184;5.486;2023-12-22T07:46:41;39.05;;;28.73;;
53879;SDS011;39791;53.184;5.486;2023-12-22T07:49:06;43.83;;;29.77;;
53879;SDS011;39791;53.184;5.486;2023-12-22T07:51:32;44.28;;;30.10;;
53879;SDS011;39791;53.184;5.486;2023-12-22T07:53:58;50.05;;;30.73;;
53879;SDS011;39791;53.184;5.486;2023-12-22T07:56:23;45.40;;;31.73;;
53879;SDS011;39791;53.184;5.486;2023-12-22T07:58:49;49.45;;;31.95;;
53879;SDS011;39791;53.184;5.486;2023-12-22T08:01:14;43.00;;;32.72;;
53879;SDS011;39791;53.184;5.486;2023-12-22T08:03:40;46.70;;;33.58;;
53879;SDS011;39791;53.184;5.486;2023-12-22T08:06:06;32.90;;;28.00;;
53879;SDS011;39791;53.184;5.486;2023-12-22T08:08:32;37.55;;;27.55;;
53879;SDS011;39791;53.184;5.486;2023-12-22T08:10:58;52.75;;;32.17;;
53879;SDS011;39791;53.184;5.486;2023-12-22T08:13:24;48.53;;;30.63;;
53879;SDS011;39791;53.184;5.486;2023-12-22T08:15:49;37.55;;;26.52;;
53879;SDS011;39791;53.184;5.486;2023-12-22T08:18:15;37.97;;;28.75;;
53879;SDS011;39791;53.184;5.486;2023-12-22T08:20:41;42.53;;;31.40;;
53879;SDS011;39791;53.184;5.486;2023-12-22T08:23:06;44.97;;;29.20;;
53879;SDS011;39791;53.184;5.486;2023-12-22T08:25:32;32.30;;;26.02;;
53879;SDS011;39791;53.184;5.486;2023-12-22T08:27:58;43.47;;;31.17;;
53879;SDS011;39791;53.184;5.486;2023-12-22T08:30:23;43.15;;;30.00;;
53879;SDS011;39791;53.184;5.486;2023-12-22T08:32:50;40.50;;;29.45;;
53879;SDS011;39791;53.184;5.486;2023-12-22T08:35:15;46.90;;;29.13;;
53879;SDS011;39791;53.184;5.486;2023-12-22T08:37:41;44.58;;;29.63;;
53879;SDS011;39791;53.184;5.486;2023-12-22T08:40:07;36.50;;;25.52;;
53879;SDS011;39791;53.184;5.486;2023-12-22T08:42:33;48.30;;;27.70;;
53879;SDS011;39791;53.184;5.486;2023-12-22T08:44:59;24.67;;;22.05;;
53879;SDS011;39791;53.184;5.486;2023-12-22T08:47:24;39.42;;;26.40;;
53879;SDS011;39791;53.184;5.486;2023-12-22T08:49:50;36.83;;;24.95;;
53879;SDS011;39791;53.184;5.486;2023-12-22T08:52:16;22.90;;;20.65;;
53879;SDS011;39791;53.184;5.486;2023-12-22T08:54:41;38.20;;;26.88;;
53879;SDS011;39791;53.184;5.486;2023-12-22T08:57:07;30.23;;;21.70;;
53879;SDS011;39791;53.184;5.486;2023-12-22T08:59:34;33.58;;;21.70;;
53879;SDS011;39791;53.184;5.486;2023-12-22T09:01:59;36.97;;;27.70;;
53879;SDS011;39791;53.184;5.486;2023-12-22T09:04:25;40.45;;;27.83;;
53879;SDS011;39791;53.184;5.486;2023-12-22T09:06:50;37.70;;;28.50;;
53879;SDS011;39791;53.184;5.486;2023-12-22T09:09:17;38.83;;;29.73;;
53879;SDS011;39791;53.184;5.486;2023-12-22T09:11:42;44.25;;;29.05;;
53879;SDS011;39791;53.184;5.486;2023-12-22T09:14:08;41.40;;;28.17;;
53879;SDS011;39791;53.184;5.486;2023-12-22T09:16:34;42.17;;;27.90;;
53879;SDS011;39791;53.184;5.486;2023-12-22T09:19:00;46.58;;;27.92;;
53879;SDS011;39791;53.184;5.486;2023-12-22T09:21:26;47.15;;;27.92;;
53879;SDS011;39791;53.184;5.486;2023-12-22T09:23:52;40.15;;;25.80;;
53879;SDS011;39791;53.184;5.486;2023-12-22T09:26:17;38.92;;;28.92;;
53879;SDS011;39791;53.184;5.486;2023-12-22T09:28:44;41.28;;;29.83;;
53879;SDS011;39791;53.184;5.486;2023-12-22T09:31:10;35.80;;;27.13;;
53879;SDS011;39791;53.184;5.486;2023-12-22T09:33:37;37.20;;;29.45;;
53879;SDS011;39791;53.184;5.486;2023-12-22T09:36:03;45.92;;;30.52;;
53879;SDS011;39791;53.184;5.486;2023-12-22T09:38:29;38.83;;;28.13;;
53879;SDS011;39791;53.184;5.486;2023-12-22T09:40:55;42.60;;;28.00;;
53879;SDS011;39791;53.184;5.486;2023-12-22T09:43:21;30.10;;;24.98;;
53879;SDS011;39791;53.184;5.486;2023-12-22T09:45:47;38.35;;;26.88;;
53879;SDS011;39791;53.184;5.486;2023-12-22T09:48:15;36.92;;;25.98;;
53879;SDS011;39791;53.184;5.486;2023-12-22T09:50:46;33.83;;;26.65;;
53879;SDS011;39791;53.184;5.486;2023-12-22T09:53:14;33.33;;;25.63;;
53879;SDS011;39791;53.184;5.486;2023-12-22T09:55:45;31.83;;;25.98;;
53879;SDS011;39791;53.184;5.486;2023-12-22T09:58:12;30.45;;;27.25;;
53879;SDS011;39791;53.184;5.486;2023-12-22T10:00:39;36.05;;;27.02;;
53879;SDS011;39791;53.184;5.486;2023-12-22T10:03:09;34.28;;;28.00;;
53879;SDS011;39791;53.184;5.486;2023-12-22T10:05:42;33.22;;;27.17;;
53879;SDS011;39791;53.184;5.486;2023-12-22T10:08:08;27.73;;;24.08;;
53879;SDS011;39791;53.184;5.486;2023-12-22T10:10:40;25.75;;;23.33;;
53879;SDS011;39791;53.184;5.486;2023-12-22T10:13:08;37.53;;;28.13;;
53879;SDS011;39791;53.184;5.486;2023-12-22T10:15:39;36.28;;;26.52;;
53879;SDS011;39791;53.184;5.486;2023-12-22T10:18:07;33.85;;;25.48;;
53879;SDS011;39791;53.184;5.486;2023-12-22T10:20:34;35.30;;;25.38;;
53879;SDS011;39791;53.184;5.486;2023-12-22T10:23:00;33.25;;;26.35;;
53879;SDS011;39791;53.184;5.486;2023-12-22T10:25:29;38.47;;;26.98;;
53879;SDS011;39791;53.184;5.486;2023-12-22T10:27:55;29.58;;;24.27;;
53879;SDS011;39791;53.184;5.486;2023-12-22T10:30:21;31.13;;;25.15;;
53879;SDS011;39791;53.184;5.486;2023-12-22T10:32:50;28.98;;;22.92;;
53879;SDS011;39791;53.184;5.486;2023-12-22T10:35:16;28.92;;;24.00;;
53879;SDS011;39791;53.184;5.486;2023-12-22T10:37:42;30.48;;;24.50;;
53879;SDS011;39791;53.184;5.486;2023-12-22T10:40:08;23.02;;;20.73;;
53879;SDS011;39791;53.184;5.486;2023-12-22T10:42:35;33.17;;;25.33;;
53879;SDS011;39791;53.184;5.486;2023-12-22T10:45:01;39.45;;;26.77;;
53879;SDS011;39791;53.184;5.486;2023-12-22T10:47:27;40.88;;;26.55;;
53879;SDS011;39791;53.184;5.486;2023-12-22T10:49:54;39.70;;;26.63;;
53879;SDS011;39791;53.184;5.486;2023-12-22T10:52:19;42.95;;;27.20;;
53879;SDS011;39791;53.184;5.486;2023-12-22T10:54:48;33.92;;;24.83;;
53879;SDS011;39791;53.184;5.486;2023-12-22T10:57:17;39.03;;;25.58;;
53879;SDS011;39791;53.184;5.486;2023-12-22T10:59:45;36.70;;;26.17;;
53879;SDS011;39791;53.184;5.486;2023-12-22T11:02:15;41.58;;;26.75;;
53879;SDS011;39791;53.184;5.486;2023-12-22T11:04:53;31.23;;;24.95;;
53879;SDS011;39791;53.184;5.486;2023-12-22T11:07:20;32.40;;;25.98;;
53879;SDS011;39791;53.184;5.486;2023-12-22T11:09:50;40.72;;;27.25;;
53879;SDS011;39791;53.184;5.486;2023-12-22T11:12:17;35.38;;;22.67;;
53879;SDS011;39791;53.184;5.486;2023-12-22T11:14:43;33.58;;;22.55;;
53879;SDS011;39791;53.184;5.486;2023-12-22T11:17:16;34.28;;;23.30;;
53879;SDS011;39791;53.184;5.486;2023-12-22T11:19:48;38.03;;;24.92;;
53879;SDS011;39791;53.184;5.486;2023-12-22T11:22:16;32.08;;;23.40;;
53879;SDS011;39791;53.184;5.486;2023-12-22T11:24:48;31.85;;;23.83;;
53879;SDS011;39791;53.184;5.486;2023-12-22T11:27:17;32.58;;;22.73;;
53879;SDS011;39791;53.184;5.486;2023-12-22T11:29:47;34.80;;;23.60;;
53879;SDS011;39791;53.184;5.486;2023-12-22T11:32:17;30.30;;;22.40;;
53879;SDS011;39791;53.184;5.486;2023-12-22T11:34:44;30.85;;;22.15;;
53879;SDS011;39791;53.184;5.486;2023-12-22T11:37:11;29.02;;;20.67;;
53879;SDS011;39791;53.184;5.486;2023-12-22T11:39:41;26.25;;;20.20;;
53879;SDS011;39791;53.184;5.486;2023-12-22T11:42:18;29.58;;;22.38;;
53879;SDS011;39791;53.184;5.486;2023-12-22T11:44:48;32.00;;;21.92;;
53879;SDS011;39791;53.184;5.486;2023-12-22T11:47:14;32.75;;;21.10;;
53879;SDS011;39791;53.184;5.486;2023-12-22T11:49:40;29.98;;;22.13;;
53879;SDS011;39791;53.184;5.486;2023-12-22T11:52:09;34.30;;;23.40;;
53879;SDS011;39791;53.184;5.486;2023-12-22T11:57:49;32.95;;;22.10;;
53879;SDS011;39791;53.184;5.486;2023-12-22T12:00:08;34.70;;;22.65;;
53879;SDS011;39791;53.184;5.486;2023-12-22T12:02:46;39.72;;;24.27;;
53879;SDS011;39791;53.184;5.486;2023-12-22T12:05:19;37.35;;;23.98;;
53879;SDS011;39791;53.184;5.486;2023-12-22T12:07:46;32.78;;;23.77;;
53879;SDS011;39791;53.184;5.486;2023-12-22T12:13:07;30.05;;;23.48;;
53879;SDS011;39791;53.184;5.486;2023-12-22T12:15:34;33.80;;;22.83;;
53879;SDS011;39791;53.184;5.486;2023-12-22T12:18:01;28.85;;;22.60;;
53879;SDS011;39791;53.184;5.486;2023-12-22T12:20:27;31.27;;;21.92;;
53879;SDS011;39791;53.184;5.486;2023-12-22T12:22:53;32.17;;;24.05;;
53879;SDS011;39791;53.184;5.486;2023-12-22T12:25:22;32.85;;;22.60;;
53879;SDS011;39791;53.184;5.486;2023-12-22T12:28:00;32.85;;;23.95;;
53879;SDS011;39791;53.184;5.486;2023-12-22T12:30:30;32.42;;;22.30;;
53879;SDS011;39791;53.184;5.486;2023-12-22T12:32:58;34.97;;;23.55;;
53879;SDS011;39791;53.184;5.486;2023-12-22T12:35:30;37.40;;;25.23;;
53879;SDS011;39791;53.184;5.486;2023-12-22T12:37:57;35.03;;;24.45;;
53879;SDS011;39791;53.184;5.486;2023-12-22T12:40:24;28.42;;;21.92;;
53879;SDS011;39791;53.184;5.486;2023-12-22T12:42:50;27.77;;;21.58;;
53879;SDS011;39791;53.184;5.486;2023-12-22T12:45:15;25.45;;;22.23;;
53879;SDS011;39791;53.184;5.486;2023-12-22T12:47:57;29.85;;;22.35;;
53879;SDS011;39791;53.184;5.486;2023-12-22T12:50:23;30.83;;;24.40;;
53879;SDS011;39791;53.184;5.486;2023-12-22T12:52:51;27.13;;;24.15;;
53879;SDS011;39791;53.184;5.486;2023-12-22T12:55:20;29.27;;;25.33;;
53879;SDS011;39791;53.184;5.486;2023-12-22T12:57:50;36.45;;;24.35;;
53879;SDS011;39791;53.184;5.486;2023-12-22T13:00:17;30.20;;;25.20;;
53879;SDS011;39791;53.184;5.486;2023-12-22T13:02:49;32.58;;;23.75;;
53879;SDS011;39791;53.184;5.486;2023-12-22T13:05:22;42.08;;;25.02;;
53879;SDS011;39791;53.184;5.486;2023-12-22T13:07:48;38.25;;;28.75;;
53879;SDS011;39791;53.184;5.486;2023-12-22T13:12:45;40.15;;;29.60;;
53879;SDS011;39791;53.184;5.486;2023-12-22T13:15:11;46.72;;;34.17;;
53879;SDS011;39791;53.184;5.486;2023-12-22T13:17:37;37.08;;;28.55;;
53879;SDS011;39791;53.184;5.486;2023-12-22T13:20:02;40.63;;;26.95;;
53879;SDS011;39791;53.184;5.486;2023-12-22T13:22:28;38.97;;;29.70;;
53879;SDS011;39791;53.184;5.486;2023-12-22T13:24:54;38.63;;;28.77;;
53879;SDS011;39791;53.184;5.486;2023-12-22T13:27:21;25.98;;;23.40;;
53879;SDS011;39791;53.184;5.486;2023-12-22T13:29:47;26.42;;;23.77;;
53879;SDS011;39791;53.184;5.486;2023-12-22T13:32:20;33.65;;;27.50;;
53879;SDS011;39791;53.184;5.486;2023-12-22T13:34:50;25.60;;;23.00;;
53879;SDS011;39791;53.184;5.486;2023-12-22T13:37:17;29.60;;;25.02;;
53879;SDS011;39791;53.184;5.486;2023-12-22T13:39:43;35.38;;;26.95;;
53879;SDS011;39791;53.184;5.486;2023-12-22T13:42:16;35.30;;;27.75;;
53879;SDS011;39791;53.184;5.486;2023-12-22T13:44:45;32.72;;;26.83;;
53879;SDS011;39791;53.184;5.486;2023-12-22T13:47:14;28.80;;;25.88;;
53879;SDS011;39791;53.184;5.486;2023-12-22T13:49:41;31.58;;;27.67;;
53879;SDS011;39791;53.184;5.486;2023-12-22T13:52:08;33.15;;;27.08;;
53879;SDS011;39791;53.184;5.486;2023-12-22T13:54:48;40.70;;;30.85;;
53879;SDS011;39791;53.184;5.486;2023-12-22T13:57:20;38.70;;;29.95;;
53879;SDS011;39791;53.184;5.486;2023-12-22T13:59:49;43.72;;;28.73;;
53879;SDS011;39791;53.184;5.486;2023-12-22T14:02:14;34.13;;;30.33;;
53879;SDS011;39791;53.184;5.486;2023-12-22T14:04:40;26.08;;;23.75;;
53879;SDS011;39791;53.184;5.486;2023-12-22T14:07:06;36.88;;;28.40;;
53879;SDS011;39791;53.184;5.486;2023-12-22T14:09:31;38.53;;;28.17;;
53879;SDS011;39791;53.184;5.486;2023-12-22T14:11:59;26.48;;;23.58;;
53879;SDS011;39791;53.184;5.486;2023-12-22T14:14:24;26.58;;;23.90;;
53879;SDS011;39791;53.184;5.486;2023-12-22T14:16:50;28.77;;;23.45;;
53879;SDS011;39791;53.184;5.486;2023-12-22T14:19:16;26.98;;;23.65;;
53879;SDS011;39791;53.184;5.486;2023-12-22T14:21:41;26.80;;;24.23;;
53879;SDS011;39791;53.184;5.486;2023-12-22T14:24:07;27.52;;;23.45;;
53879;SDS011;39791;53.184;5.486;2023-12-22T14:26:32;34.67;;;27.08;;
53879;SDS011;39791;53.184;5.486;2023-12-22T14:28:58;36.75;;;28.88;;
53879;SDS011;39791;53.184;5.486;2023-12-22T14:31:23;39.95;;;30.13;;
53879;SDS011;39791;53.184;5.486;2023-12-22T14:33:49;26.92;;;24.10;;